Time;durP1;ratioP1;P1;durP2;ratioP2;P2;SDS_P1;SDS_P2;PMS_P1;PMS_P2;Temp;Humidity;BMP_temperature;BMP_pressure;BME280_temperature;BME280_humidity;BME280_pressure;Samples;Min_cycle;Max_cycle;Signal;HPM_P1;HPM_P2
2023/06/22 00:04:27;;;;;;;9.10;3.58;;;;;;;16.61;71.93;100028.78;10457504;28;20045;-68
2023/06/22 00:09:28;;;;;;;9.63;3.75;;;;;;;16.99;72.10;100103.06;10457564;28;20057;-69
2023/06/22 00:14:28;;;;;;;6.53;3.50;;;;;;;17.05;72.17;100100.38;10458323;28;20045;-68
2023/06/22 00:19:29;;;;;;;8.60;3.88;;;;;;;15.97;72.36;99947.44;10457596;28;20053;-68
2023/06/22 00:24:30;;;;;;;11.40;3.92;;;;;;;16.31;73.14;100026.66;10456039;28;20048;-68
2023/06/22 00:29:31;;;;;;;13.85;4.10;;;;;;;16.60;73.85;100099.53;10456328;28;20103;-68
2023/06/22 00:34:31;;;;;;;18.45;4.47;;;;;;;16.55;74.52;100105.56;10457276;28;20110;-68
2023/06/22 00:39:33;;;;;;;28.35;4.22;;;;;;;16.55;74.06;100110.91;10456089;28;20049;-68
2023/06/22 00:44:35;;;;;;;31.10;4.35;;;;;;;16.17;74.41;100046.50;10456937;28;20118;-69
2023/06/22 00:49:37;;;;;;;38.35;5.03;;;;;;;16.38;74.33;100091.78;10456581;28;20060;-69
2023/06/22 00:54:38;;;;;;;31.20;5.00;;;;;;;16.11;74.40;100061.59;10456871;28;20522;-69
2023/06/22 00:59:39;;;;;;;14.45;3.90;;;;;;;16.34;74.41;100125.44;10455907;28;20057;-69
2023/06/22 01:04:40;;;;;;;16.48;3.65;;;;;;;16.24;74.38;100114.31;10454488;28;20477;-69
2023/06/22 01:09:54;;;;;;;16.88;4.78;;;;;;;16.32;77.44;100126.66;10455571;28;20044;-69
2023/06/22 01:15:04;;;;;;;25.42;3.53;;;;;;;16.22;75.78;100124.44;10455552;28;20117;-69
2023/06/22 01:20:08;;;;;;;11.90;3.45;;;;;;;16.20;76.08;100118.44;10455325;28;20543;-69
2023/06/22 01:25:31;;;;;;;24.08;4.35;;;;;;;16.39;78.17;100135.50;10454710;28;20041;-69
2023/06/22 01:30:33;;;;;;;17.00;4.23;;;;;;;16.28;75.31;100120.09;10453695;28;20508;-69
2023/06/22 01:35:35;;;;;;;27.73;4.55;;;;;;;16.22;75.56;100115.56;10454927;28;20072;-68
2023/06/22 01:40:37;;;;;;;17.85;3.75;;;;;;;16.36;76.76;100118.00;10454697;28;20041;-68
2023/06/22 01:45:38;;;;;;;15.98;3.90;;;;;;;16.20;76.70;100095.16;10460930;28;20040;-68
2023/06/22 01:50:40;;;;;;;19.67;4.03;;;;;;;16.39;76.86;100138.19;10467341;28;20107;-69
2023/06/22 01:55:41;;;;;;;14.05;3.83;;;;;;;16.48;76.80;100149.50;10454905;28;20037;-68
2023/06/22 02:00:58;;;;;;;10.32;3.70;;;;;;;16.08;78.45;100087.97;10453642;28;20036;-68
2023/06/22 02:06:05;;;;;;;22.55;4.50;;;;;;;16.50;78.11;100156.31;10454161;28;20041;-69
2023/06/22 02:11:08;;;;;;;8.38;3.53;;;;;;;16.67;76.83;100152.13;10455479;28;20397;-68
2023/06/22 02:16:13;;;;;;;13.32;4.30;;;;;;;17.07;78.26;100183.34;10475502;28;20041;-68
2023/06/22 02:21:14;;;;;;;14.40;3.90;;;;;;;17.41;76.34;100192.00;10494831;28;20049;-68
2023/06/22 02:26:18;;;;;;;16.88;4.32;;;;;;;17.79;76.55;100202.72;10494830;28;20044;-69
2023/06/22 02:31:20;;;;;;;17.52;5.45;;;;;;;18.54;74.36;100201.81;10476044;28;20044;-68
2023/06/22 02:36:22;;;;;;;21.25;4.35;;;;;;;19.34;72.47;100193.59;10452856;28;20044;-69
2023/06/22 02:41:23;;;;;;;8.85;3.45;;;;;;;20.28;69.65;100199.16;10453503;28;20128;-69
2023/06/22 02:46:23;;;;;;;10.43;4.20;;;;;;;21.04;67.49;100196.47;10452783;28;20373;-69
2023/06/22 02:51:24;;;;;;;22.10;4.60;;;;;;;21.81;65.20;100172.47;10452757;28;20065;-68
2023/06/22 02:56:25;;;;;;;10.05;4.05;;;;;;;22.79;62.22;100186.31;10455693;28;20044;-69
2023/06/22 03:01:27;;;;;;;11.15;4.88;;;;;;;23.75;59.93;100197.59;10460651;28;20151;-69
2023/06/22 03:06:28;;;;;;;12.10;4.47;;;;;;;24.58;57.65;100200.63;10460967;28;20131;-69
2023/06/22 03:11:30;;;;;;;24.15;5.72;;;;;;;24.69;55.88;100186.00;10459750;28;20107;-69
2023/06/22 03:16:31;;;;;;;18.60;4.47;;;;;;;25.09;55.01;100202.72;10460153;28;20041;-68
2023/06/22 03:21:32;;;;;;;12.70;5.00;;;;;;;24.62;54.45;100146.59;10459275;28;20041;-69
2023/06/22 03:26:34;;;;;;;22.65;4.82;;;;;;;25.25;54.01;100150.88;10459557;28;20045;-69
2023/06/22 03:31:35;;;;;;;16.15;5.22;;;;;;;26.01;53.32;100216.47;10459517;28;20098;-69
2023/06/22 03:36:35;;;;;;;12.95;5.07;;;;;;;26.13;53.15;100225.97;10459928;28;20049;-69
2023/06/22 03:41:36;;;;;;;15.15;4.60;;;;;;;26.85;51.37;100221.19;10458482;28;20397;-69
2023/06/22 03:46:37;;;;;;;15.50;5.22;;;;;;;26.22;51.04;100117.34;10458843;28;20055;-69
2023/06/22 03:51:38;;;;;;;13.52;5.28;;;;;;;27.12;50.98;100241.78;10459036;28;20061;-69
2023/06/22 03:56:39;;;;;;;12.15;4.70;;;;;;;26.37;50.81;100114.56;10458188;28;20599;-69
2023/06/22 04:01:40;;;;;;;15.43;4.25;;;;;;;27.95;48.56;100224.63;10479277;28;20128;-69
2023/06/22 04:06:41;;;;;;;8.35;4.40;;;;;;;28.92;46.73;100243.84;10499528;28;20144;-69
2023/06/22 04:11:41;;;;;;;13.45;4.82;;;;;;;29.03;45.30;100188.75;10497330;28;20045;-69
2023/06/22 04:16:42;;;;;;;9.88;4.47;;;;;;;29.71;44.84;100239.50;10479412;28;20127;-69
2023/06/22 04:21:44;;;;;;;7.65;4.15;;;;;;;29.92;43.55;100234.50;10462137;28;20041;-70
2023/06/22 04:26:46;;;;;;;17.93;4.57;;;;;;;28.64;45.64;100238.16;10457778;28;20454;-70
2023/06/22 04:31:50;;;;;;;10.98;4.32;;;;;;;28.11;47.00;100259.97;10471223;28;20373;-69
2023/06/22 04:36:51;;;;;;;9.02;4.65;;;;;;;29.03;45.14;100248.91;10482340;28;20154;-69
2023/06/22 04:41:52;;;;;;;10.27;4.30;;;;;;;29.94;43.61;100247.88;10484490;28;20503;-68
2023/06/22 04:46:59;;;;;;;7.22;4.38;;;;;;;30.70;42.57;100253.91;10497443;28;20082;-68
2023/06/22 04:52:01;;;;;;;10.13;4.55;;;;;;;30.57;42.25;100247.28;10484086;28;20508;-71
2023/06/22 04:57:03;;;;;;;11.33;3.80;;;;;;;30.81;41.95;100258.13;10460730;28;20052;-71
2023/06/22 05:02:05;;;;;;;6.82;4.03;;;;;;;30.53;42.34;100264.66;10495821;28;20048;-68
2023/06/22 05:07:06;;;;;;;8.83;4.10;;;;;;;29.86;42.10;100183.66;10498012;28;20055;-68
2023/06/22 05:12:07;;;;;;;10.50;4.28;;;;;;;29.44;43.72;100259.31;10496803;28;20508;-68
2023/06/22 05:17:13;;;;;;;8.77;4.07;;;;;;;29.36;43.60;100257.22;10496717;28;20565;-68
2023/06/22 05:22:17;;;;;;;5.38;4.28;;;;;;;29.21;43.53;100271.13;10496181;28;20040;-68
2023/06/22 05:27:17;;;;;;;17.38;4.47;;;;;;;28.62;44.63;100186.50;10495928;28;20121;-71
2023/06/22 05:32:18;;;;;;;10.38;4.38;;;;;;;29.00;44.24;100185.78;10496225;28;20127;-68
2023/06/22 05:37:19;;;;;;;24.65;4.85;;;;;;;29.28;44.14;100230.53;10495552;28;20059;-68
2023/06/22 05:42:20;;;;;;;6.88;4.20;;;;;;;29.15;44.01;100251.22;10495583;28;20439;-68
2023/06/22 05:47:22;;;;;;;8.82;4.13;;;;;;;28.59;44.95;100271.81;10495706;28;20083;-68
2023/06/22 05:52:23;;;;;;;12.32;3.90;;;;;;;28.67;44.16;100229.38;10494193;28;20133;-68
2023/06/22 05:57:24;;;;;;;12.93;4.03;;;;;;;29.01;43.67;100255.75;10495681;28;20121;-69
2023/06/22 06:02:25;;;;;;;7.80;4.00;;;;;;;29.31;43.83;100262.75;10495086;28;20544;-70
2023/06/22 06:07:26;;;;;;;6.18;3.75;;;;;;;29.22;43.18;100248.13;10495011;28;20482;-70
2023/06/22 06:12:26;;;;;;;16.83;3.92;;;;;;;29.25;43.41;100262.03;10493844;28;20068;-70
2023/06/22 06:17:27;;;;;;;9.15;4.15;;;;;;;29.52;42.78;100258.63;10494765;28;20047;-70
2023/06/22 06:22:28;;;;;;;8.75;4.00;;;;;;;28.87;42.85;100239.25;10495745;28;20131;-70
2023/06/22 06:27:29;;;;;;;12.07;4.20;;;;;;;28.90;43.58;100261.34;10483861;28;20037;-70
2023/06/22 06:32:30;;;;;;;11.00;4.38;;;;;;;28.86;43.31;100270.44;10476712;28;20044;-70
2023/06/22 06:37:31;;;;;;;9.55;4.10;;;;;;;28.77;43.02;100245.66;10468294;28;20412;-71
2023/06/22 06:42:32;;;;;;;8.25;3.80;;;;;;;29.09;42.53;100261.41;10500674;28;20032;-71
2023/06/22 06:47:32;;;;;;;6.70;3.90;;;;;;;29.34;42.58;100262.16;10502514;28;20472;-70
2023/06/22 06:52:33;;;;;;;5.55;3.75;;;;;;;29.58;41.35;100262.91;10502006;28;20082;-71
2023/06/22 06:57:34;;;;;;;10.55;3.70;;;;;;;29.37;40.93;100253.38;10503096;28;20152;-70
2023/06/22 07:02:35;;;;;;;9.38;3.65;;;;;;;29.24;40.14;100268.59;10501900;28;20037;-71
2023/06/22 07:07:36;;;;;;;5.40;3.65;;;;;;;28.70;40.96;100228.78;10501737;28;20040;-70
2023/06/22 07:12:37;;;;;;;7.13;3.83;;;;;;;29.02;39.25;100274.66;10501532;28;20044;-71
2023/06/22 07:17:41;;;;;;;8.75;3.33;;;;;;;28.82;38.07;100266.66;10500199;28;20531;-72
2023/06/22 07:22:44;;;;;;;7.47;3.20;;;;;;;29.11;38.01;100263.88;10500656;28;20041;-71
2023/06/22 07:27:46;;;;;;;;;;;;;;;29.13;36.06;100272.59;10496675;28;20450;-70
2023/06/22 07:32:47;;;;;;;8.75;3.30;;;;;;;28.99;38.46;100268.91;10467569;28;19927;-70
2023/06/22 07:37:47;;;;;;;5.85;2.88;;;;;;;29.35;36.46;100263.81;10459111;28;20059;-73
2023/06/22 07:42:49;;;;;;;11.35;3.47;;;;;;;28.81;35.96;100196.69;10488712;28;20032;-71
2023/06/22 07:47:50;;;;;;;6.23;3.33;;;;;;;29.37;34.74;100272.53;10471325;28;20055;-71
2023/06/22 07:52:52;;;;;;;11.65;3.67;;;;;;;29.62;33.87;100241.28;10458754;28;20049;-71
2023/06/22 07:57:53;;;;;;;11.03;3.40;;;;;;;29.33;34.26;100275.03;10464791;28;20050;-71
2023/06/22 08:02:54;;;;;;;5.63;3.08;;;;;;;28.76;34.15;100251.41;10495291;28;20442;-70
2023/06/22 08:07:55;;;;;;;5.32;3.10;;;;;;;29.25;32.99;100270.22;10472143;28;20059;-71
2023/06/22 08:12:56;;;;;;;12.32;4.50;;;;;;;29.52;33.19;100228.50;10467410;28;20037;-75
2023/06/22 08:17:57;;;;;;;6.47;3.35;;;;;;;29.38;32.72;100174.84;10459798;28;20045;-73
2023/06/22 08:23:05;;;;;;;9.50;3.08;;;;;;;30.21;31.82;100261.69;10456856;28;20033;-72
2023/06/22 08:28:07;;;;;;;7.63;3.22;;;;;;;30.52;32.15;100239.19;10457934;28;20102;-71
2023/06/22 08:33:07;;;;;;;12.45;4.22;;;;;;;30.15;31.39;100161.47;10456031;28;20517;-73
2023/06/22 08:38:08;;;;;;;8.10;2.90;;;;;;;30.86;31.35;100252.50;10463526;28;20048;-73
2023/06/22 08:43:09;;;;;;;4.82;2.75;;;;;;;30.43;31.08;100177.97;10462326;28;20492;-72
2023/06/22 08:48:10;;;;;;;7.78;2.88;;;;;;;31.00;30.87;100237.97;10465472;28;20148;-72
2023/06/22 08:53:11;;;;;;;6.20;3.17;;;;;;;30.50;30.98;100172.88;10455006;28;20090;-73
2023/06/22 08:58:11;;;;;;;14.25;3.53;;;;;;;30.51;30.33;100171.75;10455395;28;20044;-73
2023/06/22 09:03:15;;;;;;;6.50;2.80;;;;;;;30.71;29.45;100247.31;10455929;28;20037;-71
2023/06/22 09:08:16;;;;;;;13.77;4.03;;;;;;;30.60;30.87;100216.53;10456288;28;20052;-71
2023/06/22 09:13:16;;;;;;;10.55;3.55;;;;;;;30.78;30.10;100242.25;10455519;28;20040;-71
2023/06/22 09:18:17;;;;;;;4.55;2.88;;;;;;;30.38;29.55;100189.03;10454505;28;20047;-71
2023/06/22 09:23:18;;;;;;;10.20;3.30;;;;;;;31.00;30.43;100240.72;10454560;28;20124;-72
2023/06/22 09:28:18;;;;;;;5.55;3.28;;;;;;;31.15;29.58;100246.69;10454746;28;20041;-72
2023/06/22 09:33:19;;;;;;;7.18;3.38;;;;;;;31.43;29.39;100237.59;10466092;28;20040;-71
2023/06/22 09:38:20;;;;;;;11.50;3.47;;;;;;;31.98;28.87;100231.88;10454700;28;20044;-72
2023/06/22 09:43:21;;;;;;;11.00;3.40;;;;;;;31.99;28.46;100239.00;10454654;28;20045;-72
2023/06/22 09:48:22;;;;;;;10.75;3.50;;;;;;;31.83;28.44;100216.59;10454484;28;20064;-71
2023/06/22 09:53:23;;;;;;;9.93;3.60;;;;;;;30.96;28.98;100171.94;10460570;28;20442;-71
2023/06/22 09:58:23;;;;;;;14.90;3.72;;;;;;;30.98;29.06;100237.47;10458040;28;20048;-71
2023/06/22 10:03:24;;;;;;;6.90;3.60;;;;;;;31.01;29.27;100242.34;10478067;28;20040;-71
2023/06/22 10:08:25;;;;;;;11.15;3.85;;;;;;;30.92;29.37;100220.31;10462168;28;20068;-72
2023/06/22 10:13:26;;;;;;;15.48;3.47;;;;;;;31.29;28.37;100226.63;10463335;28;20086;-72
2023/06/22 10:18:26;;;;;;;6.88;3.50;;;;;;;30.81;28.97;100230.69;10461636;28;20052;-71
2023/06/22 10:23:27;;;;;;;6.85;3.25;;;;;;;30.85;28.88;100217.19;10461604;28;20087;-71
2023/06/22 10:28:28;;;;;;;9.68;3.30;;;;;;;30.59;29.21;100206.69;10461417;28;20469;-73
2023/06/22 10:33:29;;;;;;;11.50;3.38;;;;;;;30.57;28.55;100216.34;10472465;28;20045;-71
2023/06/22 10:38:29;;;;;;;7.72;3.78;;;;;;;31.05;28.19;100214.00;10461535;28;20520;-71
2023/06/22 10:43:30;;;;;;;5.57;3.45;;;;;;;30.85;28.08;100143.13;10460760;28;20037;-73
2023/06/22 10:48:31;;;;;;;6.57;3.40;;;;;;;31.24;26.58;100202.84;10460845;28;20500;-72
2023/06/22 10:53:32;;;;;;;10.68;3.90;;;;;;;30.76;27.78;100156.72;10465564;28;20045;-72
2023/06/22 10:58:32;;;;;;;5.75;3.53;;;;;;;30.82;27.76;100196.66;10467203;28;20378;-72
2023/06/22 11:03:33;;;;;;;18.15;3.80;;;;;;;30.68;27.17;100168.41;10460656;28;20128;-73
2023/06/22 11:08:34;;;;;;;16.02;4.05;;;;;;;30.84;27.83;100194.44;10459839;28;20066;-72
2023/06/22 11:13:35;;;;;;;10.95;3.42;;;;;;;30.51;27.58;100132.56;10460367;28;20047;-74
2023/06/22 11:18:36;;;;;;;6.15;3.33;;;;;;;31.13;27.00;100182.25;10459867;28;20069;-73
2023/06/22 11:23:36;;;;;;;10.88;3.63;;;;;;;31.01;27.26;100201.19;10459817;28;20049;-71
2023/06/22 11:28:37;;;;;;;8.98;3.50;;;;;;;31.01;26.65;100204.75;10459766;28;20037;-73
2023/06/22 11:33:38;;;;;;;8.20;3.47;;;;;;;31.29;26.89;100188.19;10459537;28;20565;-72
2023/06/22 11:38:39;;;;;;;6.45;3.45;;;;;;;30.75;27.39;100130.41;10459537;28;20045;-74
2023/06/22 11:43:40;;;;;;;7.10;3.53;;;;;;;30.93;27.39;100186.25;10459079;28;20408;-72
2023/06/22 11:48:41;;;;;;;12.98;3.75;;;;;;;30.75;26.97;100193.47;10459125;28;20056;-72
2023/06/22 11:53:42;;;;;;;10.15;3.30;;;;;;;30.37;27.31;100162.75;10458080;28;20127;-72
2023/06/22 11:58:43;;;;;;;9.38;3.78;;;;;;;30.12;27.62;100161.28;10493673;28;20044;-72
2023/06/22 12:03:44;;;;;;;8.00;3.17;;;;;;;29.90;28.13;100183.88;10497495;28;20166;-71
2023/06/22 12:08:44;;;;;;;29.55;3.92;;;;;;;29.91;27.84;100191.78;10476634;28;20543;-72
2023/06/22 12:13:45;;;;;;;25.55;4.28;;;;;;;30.15;27.31;100188.88;10494773;28;20044;-73
2023/06/22 12:18:46;;;;;;;9.40;2.90;;;;;;;30.31;25.89;100181.22;10486444;28;20041;-72
2023/06/22 12:23:47;;;;;;;6.53;2.90;;;;;;;30.13;26.19;100184.81;10497182;28;20048;-72
2023/06/22 12:28:48;;;;;;;9.80;2.50;;;;;;;29.36;25.60;100180.63;10475135;28;20079;-73
2023/06/22 12:33:49;;;;;;;6.40;2.65;;;;;;;29.11;26.21;100163.47;10482977;28;20040;-73
2023/06/22 12:38:49;;;;;;;19.52;3.13;;;;;;;29.60;25.36;100138.63;10495116;28;20063;-74
2023/06/22 12:43:50;;;;;;;7.18;2.67;;;;;;;30.13;24.72;100130.03;10491445;28;20098;-73
2023/06/22 12:48:51;;;;;;;7.47;2.60;;;;;;;30.31;24.07;100159.28;10495194;28;20079;-73
2023/06/22 12:53:52;;;;;;;11.48;2.60;;;;;;;30.53;24.30;100188.72;10496526;28;20048;-73
2023/06/22 12:58:52;;;;;;;13.98;2.70;;;;;;;30.69;23.89;100216.63;10496671;28;20575;-73
2023/06/22 13:03:53;;;;;;;13.63;2.40;;;;;;;30.52;23.02;100224.69;10497776;28;20040;-72
2023/06/22 13:08:54;;;;;;;8.02;2.60;;;;;;;30.00;24.58;100209.16;10496615;28;20048;-73
2023/06/22 13:13:55;;;;;;;7.35;2.67;;;;;;;30.10;24.82;100179.97;10496960;28;20498;-72
2023/06/22 13:18:56;;;;;;;15.80;2.55;;;;;;;30.55;23.98;100213.09;10496615;28;20089;-73
2023/06/22 13:23:56;;;;;;;12.45;2.70;;;;;;;30.45;24.15;100203.13;10495921;28;20047;-74
2023/06/22 13:28:57;;;;;;;7.22;2.55;;;;;;;30.14;23.79;100139.88;10495811;28;20131;-73
2023/06/22 13:33:58;;;;;;;10.52;2.60;;;;;;;30.79;23.26;100232.13;10495801;28;20173;-73
2023/06/22 13:38:59;;;;;;;6.43;2.70;;;;;;;30.79;23.07;100218.41;10493885;28;20461;-73
2023/06/22 13:43:59;;;;;;;5.35;2.45;;;;;;;30.83;22.36;100236.66;10496939;28;20423;-73
2023/06/22 13:49:00;;;;;;;11.07;2.55;;;;;;;30.82;22.43;100228.75;10495727;28;20064;-73
2023/06/22 13:54:03;;;;;;;11.90;2.40;;;;;;;30.79;22.35;100232.91;10495292;28;20076;-71
2023/06/22 13:59:03;;;;;;;5.78;2.50;;;;;;;30.67;21.80;100238.88;10495310;28;20503;-73
2023/06/22 14:04:04;;;;;;;15.00;2.90;;;;;;;30.57;22.56;100230.84;10495752;28;20094;-73
2023/06/22 14:09:05;;;;;;;8.60;2.80;;;;;;;30.36;22.05;100237.84;10488917;28;20076;-73
2023/06/22 14:14:06;;;;;;;9.82;2.90;;;;;;;29.80;22.32;100184.88;10462980;28;20040;-74
2023/06/22 14:19:06;;;;;;;13.85;4.20;;;;;;;30.17;22.52;100259.81;10479563;28;20569;-71
2023/06/22 14:24:07;;;;;;;5.13;2.80;;;;;;;29.78;21.85;100193.38;10476558;28;20419;-68
2023/06/22 14:29:08;;;;;;;8.23;3.03;;;;;;;30.04;22.24;100239.50;10495015;28;20041;-68
2023/06/22 14:34:09;;;;;;;7.35;2.45;;;;;;;29.91;22.23;100270.38;10469775;28;20041;-68
2023/06/22 14:39:10;;;;;;;11.13;2.85;;;;;;;29.40;22.65;100261.00;10476112;28;20037;-68
2023/06/22 14:44:10;;;;;;;11.38;2.60;;;;;;;29.18;22.45;100283.47;10467405;28;20067;-68
2023/06/22 14:49:11;;;;;;;22.13;3.13;;;;;;;29.18;22.49;100286.19;10460951;28;20053;-68
2023/06/22 14:54:12;;;;;;;37.08;4.90;;;;;;;29.22;22.13;100283.69;10480753;28;20523;-67
2023/06/22 14:59:13;;;;;;;10.48;2.60;;;;;;;29.03;22.01;100289.94;10501531;28;20052;-68
2023/06/22 15:04:14;;;;;;;93.45;8.93;;;;;;;28.82;22.06;100291.25;10474038;28;20504;-67
2023/06/22 15:09:14;;;;;;;9.65;2.70;;;;;;;28.84;21.95;100298.06;10460251;28;20041;-67
2023/06/22 15:14:15;;;;;;;140.93;9.18;;;;;;;28.74;22.56;100300.09;10460178;28;20044;-68
2023/06/22 15:19:16;;;;;;;21.50;3.10;;;;;;;28.64;22.42;100310.03;10460123;28;20045;-68
2023/06/22 15:24:17;;;;;;;17.60;3.00;;;;;;;28.54;22.56;100304.69;10459040;28;20749;-68
2023/06/22 15:29:17;;;;;;;12.25;2.83;;;;;;;28.31;23.10;100314.44;10460044;28;20041;-71
2023/06/22 15:34:19;;;;;;;8.23;2.35;;;;;;;27.85;23.42;100312.06;10459633;28;20041;-67
2023/06/22 15:39:20;;;;;;;8.75;2.38;;;;;;;27.59;23.71;100333.22;10463918;28;20052;-67
2023/06/22 15:44:21;;;;;;;20.08;3.42;;;;;;;27.31;24.35;100324.63;10480514;28;20051;-67
2023/06/22 15:49:22;;;;;;;55.65;4.80;;;;;;;26.79;24.69;100254.19;10468393;28;20091;-67
2023/06/22 15:54:23;;;;;;;49.63;4.68;;;;;;;27.21;25.41;100332.03;10500391;28;20049;-67
2023/06/22 15:59:24;;;;;;;9.65;2.17;;;;;;;27.11;25.18;100321.97;10496010;28;20044;-68
2023/06/22 16:04:25;;;;;;;16.17;3.10;;;;;;;27.02;25.51;100342.72;10469378;28;20106;-67
2023/06/22 16:09:27;;;;;;;11.65;3.15;;;;;;;26.86;25.78;100347.38;10452293;28;20507;-68
2023/06/22 16:14:27;;;;;;;9.15;3.42;;;;;;;26.23;26.22;100274.16;10452400;28;20040;-67
2023/06/22 16:19:28;;;;;;;17.40;3.65;;;;;;;26.48;26.80;100348.78;10450552;28;20052;-68
2023/06/22 16:24:29;;;;;;;10.73;3.17;;;;;;;25.88;27.17;100289.41;10450233;28;20041;-68
2023/06/22 16:29:30;;;;;;;16.80;3.45;;;;;;;25.50;28.81;100283.34;10454004;28;20044;-68
2023/06/22 16:34:31;;;;;;;18.17;3.20;;;;;;;25.62;29.29;100355.72;10456773;28;20404;-68
2023/06/22 16:39:31;;;;;;;13.95;3.65;;;;;;;24.90;32.08;100292.06;10454879;28;20136;-68
2023/06/22 16:44:32;;;;;;;11.95;3.72;;;;;;;25.00;32.79;100374.44;10467305;28;20044;-68
2023/06/22 16:49:35;;;;;;;27.90;4.22;;;;;;;24.80;32.93;100380.59;10455041;28;20057;-68
2023/06/22 16:54:36;;;;;;;19.50;4.17;;;;;;;24.64;33.36;100389.69;10455976;28;20049;-68
2023/06/22 16:59:36;;;;;;;13.23;2.95;;;;;;;23.60;32.37;100250.63;10470655;28;20395;-67
2023/06/22 17:04:39;;;;;;;8.38;2.97;;;;;;;24.03;31.71;100343.81;10455122;28;20520;-67
2023/06/22 17:09:45;;;;;;;11.27;3.30;;;;;;;24.20;31.78;100403.44;10455039;28;20071;-68
2023/06/22 17:14:46;;;;;;;13.27;3.72;;;;;;;24.20;31.62;100416.16;10472009;28;20093;-66
2023/06/22 17:19:47;;;;;;;22.35;4.63;;;;;;;24.00;32.15;100405.94;10477459;28;20041;-66
2023/06/22 17:24:48;;;;;;;20.08;6.60;;;;;;;23.94;32.24;100443.03;10479866;28;20407;-68
2023/06/22 17:30:03;;;;;;;29.95;8.88;;;;;;;23.20;33.86;100352.06;10474065;28;20436;-68
2023/06/22 17:35:04;;;;;;;17.40;7.53;;;;;;;23.37;33.74;100418.97;10484453;28;20081;-65
2023/06/22 17:40:14;;;;;;;24.33;7.60;;;;;;;23.43;34.54;100467.59;10485276;28;20488;-67
2023/06/22 17:45:22;;;;;;;23.20;6.55;;;;;;;23.11;36.00;100474.72;10481907;28;20079;-68
2023/06/22 17:50:24;;;;;;;26.60;6.20;;;;;;;22.76;37.37;100481.16;10474103;28;20056;-70
2023/06/22 17:55:26;;;;;;;17.48;6.35;;;;;;;22.41;39.64;100487.59;10473214;28;20041;-68
2023/06/22 18:00:28;;;;;;;32.13;5.32;;;;;;;22.30;37.76;100483.06;10475156;28;20416;-68
2023/06/22 18:05:33;;;;;;;19.13;4.20;;;;;;;22.36;37.20;100494.81;10488606;28;20123;-69
2023/06/22 18:10:36;;;;;;;9.52;3.85;;;;;;;22.41;36.42;100505.72;10474901;28;20138;-69
2023/06/22 18:15:37;;;;;;;27.30;4.63;;;;;;;22.02;37.02;100464.91;10478234;28;20046;-68
2023/06/22 18:20:39;;;;;;;32.42;4.80;;;;;;;22.08;38.08;100509.94;10482420;28;20049;-68
2023/06/22 18:25:44;;;;;;;38.20;10.52;;;;;;;21.80;39.03;100478.25;10474705;28;20098;-69
2023/06/22 18:30:46;;;;;;;40.95;12.68;;;;;;;21.37;40.09;100433.56;10483672;28;20071;-68
2023/06/22 18:35:51;;;;;;;26.70;7.78;;;;;;;21.64;40.90;100515.78;10491177;28;20075;-68
2023/06/22 18:40:52;;;;;;;31.08;5.15;;;;;;;21.43;41.02;100502.88;10479307;28;20131;-71
2023/06/22 18:45:53;;;;;;;29.75;5.43;;;;;;;21.30;42.84;100516.56;10488947;28;20133;-69
2023/06/22 18:51:11;;;;;;;20.48;4.53;;;;;;;20.86;44.55;100480.97;10485293;28;20508;-66
2023/06/22 18:56:13;;;;;;;23.52;4.72;;;;;;;20.23;42.69;100422.94;10484768;28;20072;-65
2023/06/22 19:01:16;;;;;;;21.85;4.70;;;;;;;20.82;43.11;100529.22;10485330;28;20041;-67
2023/06/22 19:06:50;;;;;;;15.73;4.00;;;;;;;20.98;42.40;100543.91;10491926;28;20051;-68
2023/06/22 19:12:21;;;;;;;18.35;4.22;;;;;;;20.87;43.99;100542.00;10490318;28;20043;-67
2023/06/22 19:17:22;;;;;;;30.75;4.38;;;;;;;20.60;44.52;100519.97;10480370;28;20390;-67
2023/06/22 19:22:56;;;;;;;37.67;5.05;;;;;;;20.72;46.16;100545.94;10479401;28;20053;-67
2023/06/22 19:27:58;;;;;;;21.15;4.90;;;;;;;20.21;46.88;100508.66;10486130;28;20515;-67
2023/06/22 19:32:59;;;;;;;15.70;3.78;;;;;;;20.33;46.67;100558.06;10493805;28;20047;-67
2023/06/22 19:38:00;;;;;;;16.88;4.28;;;;;;;20.04;47.26;100530.00;10486634;28;20140;-69
2023/06/22 19:43:01;;;;;;;15.77;3.92;;;;;;;19.89;48.63;100532.25;10479008;28;20123;-68
2023/06/22 19:48:01;;;;;;;20.55;4.07;;;;;;;19.81;49.05;100544.19;10482828;28;20063;-67
2023/06/22 19:53:02;;;;;;;17.05;3.97;;;;;;;19.72;49.55;100565.22;10499149;28;20139;-67
2023/06/22 19:58:04;;;;;;;30.48;4.70;;;;;;;19.45;50.32;100558.41;10499470;28;20059;-67
2023/06/22 20:03:09;;;;;;;20.08;4.35;;;;;;;19.23;53.00;100568.72;10493951;28;20035;-67
2023/06/22 20:08:12;;;;;;;16.60;4.05;;;;;;;18.99;53.37;100559.56;10471381;28;20036;-67
2023/06/22 20:13:16;;;;;;;25.50;3.90;;;;;;;19.02;52.45;100572.59;10475786;28;20040;-67
2023/06/22 20:18:17;;;;;;;19.10;4.35;;;;;;;18.38;52.89;100488.31;10467029;28;20037;-67
2023/06/22 20:23:21;;;;;;;21.45;3.70;;;;;;;18.71;54.24;100561.59;10498595;28;20044;-67
2023/06/22 20:28:25;;;;;;;13.52;3.65;;;;;;;18.89;53.39;100579.72;10498124;28;20111;-67
2023/06/22 20:33:26;;;;;;;20.63;3.20;;;;;;;18.89;50.46;100554.69;10497516;28;20106;-67
2023/06/22 20:38:28;;;;;;;18.92;2.78;;;;;;;19.20;48.12;100579.94;10498366;28;20044;-67
2023/06/22 20:43:28;;;;;;;16.25;3.08;;;;;;;19.12;46.61;100527.19;10466382;28;20127;-67
2023/06/22 20:48:30;;;;;;;9.90;2.30;;;;;;;18.96;44.95;100481.94;10456055;28;20147;-67
2023/06/22 20:53:32;;;;;;;16.80;2.90;;;;;;;19.07;43.90;100495.53;10455782;28;20102;-68
2023/06/22 20:58:32;;;;;;;15.73;2.30;;;;;;;19.19;43.08;100510.97;10456065;28;20131;-67
2023/06/22 21:03:33;;;;;;;12.25;2.50;;;;;;;19.55;42.72;100566.78;10456153;28;20139;-67
2023/06/22 21:08:35;;;;;;;8.88;2.25;;;;;;;19.63;41.99;100573.78;10455978;28;20037;-67
2023/06/22 21:13:36;;;;;;;9.98;2.35;;;;;;;19.07;42.09;100482.06;10455820;28;20036;-67
2023/06/22 21:18:37;;;;;;;6.03;2.17;;;;;;;19.21;41.39;100506.19;10455245;28;20191;-67
2023/06/22 21:23:38;;;;;;;7.80;3.20;;;;;;;19.29;41.49;100508.59;10454841;28;20049;-67
2023/06/22 21:28:39;;;;;;;5.07;1.73;;;;;;;19.70;40.95;100586.16;10454720;28;20397;-67
2023/06/22 21:33:39;;;;;;;4.10;1.92;;;;;;;19.68;41.38;100574.78;10453958;28;20037;-67
2023/06/22 21:38:40;;;;;;;8.52;1.98;;;;;;;19.63;42.19;100568.38;10454633;28;20039;-67
2023/06/22 21:43:41;;;;;;;8.05;2.13;;;;;;;19.32;42.67;100535.06;10453850;28;20599;-67
2023/06/22 21:48:42;;;;;;;5.78;2.00;;;;;;;19.13;43.40;100542.28;10454290;28;20052;-67
2023/06/22 21:53:42;;;;;;;7.32;1.98;;;;;;;19.03;44.57;100561.63;10454693;28;20396;-67
2023/06/22 21:58:43;;;;;;;7.10;2.15;;;;;;;18.88;45.37;100566.50;10453979;28;20435;-69
2023/06/22 22:03:44;;;;;;;8.93;1.88;;;;;;;18.29;46.55;100489.63;10454175;28;20083;-67
2023/06/22 22:08:45;;;;;;;8.05;2.30;;;;;;;18.60;47.43;100559.56;10454858;28;20047;-67
2023/06/22 22:13:45;;;;;;;7.50;1.88;;;;;;;18.51;48.20;100565.44;10453546;28;20633;-67
2023/06/22 22:18:49;;;;;;;7.85;2.40;;;;;;;18.17;48.77;100537.88;10453999;28;20037;-68
2023/06/22 22:23:50;;;;;;;8.23;2.30;;;;;;;17.72;49.90;100492.09;10453574;28;20397;-67
2023/06/22 22:28:51;;;;;;;13.88;2.47;;;;;;;17.83;50.58;100526.41;10452619;28;20041;-67
2023/06/22 22:33:52;;;;;;;10.73;2.17;;;;;;;17.89;50.81;100557.81;10453608;28;20048;-67
2023/06/22 22:38:53;;;;;;;8.55;2.28;;;;;;;17.60;50.62;100517.97;10453727;28;20045;-67
2023/06/22 22:43:55;;;;;;;5.55;1.95;;;;;;;17.60;50.55;100537.59;10453214;28;20032;-67
2023/06/22 22:48:56;;;;;;;5.05;1.80;;;;;;;17.40;50.66;100529.53;10452894;28;20166;-67
2023/06/22 22:53:56;;;;;;;26.88;2.67;;;;;;;17.17;51.40;100516.56;10452902;28;20069;-67
2023/06/22 22:58:57;;;;;;;8.30;1.90;;;;;;;17.19;52.23;100554.75;10453417;28;20052;-67